createdAt,value
2019-06-07T00:02:10.668Z,7.40
2019-06-07T00:04:43.661Z,7.80
2019-06-07T00:07:17.845Z,8.18
2019-06-07T00:09:48.636Z,8.03
2019-06-07T00:12:22.624Z,8.25
2019-06-07T00:14:56.730Z,7.95
2019-06-07T00:17:28.549Z,7.50
2019-06-07T00:20:00.368Z,7.87
2019-06-07T00:22:33.636Z,7.80
2019-06-07T00:25:12.764Z,8.30
2019-06-07T00:27:42.567Z,8.50
2019-06-07T00:30:44.551Z,8.38
2019-06-07T00:32:48.701Z,8.73
2019-06-07T00:35:22.435Z,8.05
2019-06-07T00:37:53.820Z,7.05
2019-06-07T00:40:31.729Z,6.50
2019-06-07T00:43:00.029Z,6.65
2019-06-07T00:45:33.682Z,5.53
2019-06-07T00:50:38.525Z,5.45
2019-06-07T00:53:16.889Z,6.87
2019-06-07T00:55:44.491Z,5.60
2019-06-07T00:58:17.904Z,5.62
2019-06-07T01:00:49.453Z,5.50
2019-06-07T01:03:25.231Z,6.08
2019-06-07T01:05:54.596Z,6.55
2019-06-07T01:08:29.854Z,6.37
2019-06-07T01:11:02.423Z,5.85
2019-06-07T01:13:36.520Z,6.40
2019-06-07T01:16:08.390Z,6.08
2019-06-07T01:18:46.594Z,6.58
2019-06-07T01:21:19.805Z,6.58
2019-06-07T01:24:12.102Z,7.55
2019-06-07T01:26:26.742Z,7.15
2019-06-07T01:28:56.618Z,7.00
2019-06-07T01:31:31.502Z,6.57
2019-06-07T01:34:02.555Z,5.83
2019-06-07T01:36:34.169Z,6.08
2019-06-07T01:39:07.308Z,6.65
2019-06-07T01:41:39.107Z,6.70
2019-06-07T01:44:11.778Z,9.18
2019-06-07T01:46:43.894Z,10.60
2019-06-07T01:51:49.151Z,11.70
2019-06-07T01:56:55.226Z,12.07
2019-06-07T01:59:28.571Z,13.05
2019-06-07T02:02:01.910Z,12.75
2019-06-07T02:04:33.904Z,12.80
2019-06-07T02:07:07.261Z,12.78
2019-06-07T02:09:39.785Z,12.47
2019-06-07T02:12:25.576Z,12.53
2019-06-07T02:14:44.914Z,12.00
2019-06-07T02:17:17.466Z,12.43
2019-06-07T02:19:49.481Z,11.15
2019-06-07T02:22:23.140Z,10.63
2019-06-07T02:25:34.384Z,10.50
2019-06-07T02:27:29.665Z,9.80
2019-06-07T02:30:35.562Z,10.05
2019-06-07T02:32:36.777Z,9.68
2019-06-07T02:35:08.620Z,10.53
2019-06-07T02:37:40.228Z,10.10
2019-06-07T02:40:12.357Z,9.98
2019-06-07T02:42:44.352Z,9.15
2019-06-07T02:45:16.932Z,8.18
2019-06-07T02:47:48.883Z,8.00
2019-06-07T02:50:22.988Z,10.35
2019-06-07T02:52:54.293Z,9.00
2019-06-07T02:55:29.508Z,9.33
2019-06-07T02:58:02.297Z,8.83
2019-06-07T03:01:06.058Z,10.38
2019-06-07T03:03:20.219Z,9.98
2019-06-07T03:05:53.309Z,11.43
2019-06-07T03:08:25.869Z,9.20
2019-06-07T03:10:59.280Z,8.88
2019-06-07T03:13:37.189Z,9.40
2019-06-07T03:16:10.259Z,8.80
2019-06-07T03:19:03.929Z,7.62
2019-06-07T03:21:41.752Z,8.88
2019-06-07T03:24:12.967Z,7.85
2019-06-07T03:27:31.769Z,9.15
2019-06-07T03:29:20.471Z,8.73
2019-06-07T03:31:51.823Z,11.00
2019-06-07T03:34:24.607Z,12.63
2019-06-07T03:36:57.284Z,13.90
2019-06-07T03:39:29.578Z,14.53
2019-06-07T03:42:06.527Z,14.95
2019-06-07T03:44:38.245Z,13.10
2019-06-07T03:47:09.533Z,13.62
2019-06-07T03:49:43.420Z,13.20
2019-06-07T03:52:15.134Z,12.33
2019-06-07T03:54:47.565Z,11.78
2019-06-07T03:57:21.579Z,12.15
2019-06-07T03:59:53.639Z,10.63
2019-06-07T04:02:25.398Z,10.75
2019-06-07T04:04:57.559Z,12.18
2019-06-07T04:07:30.658Z,11.38
2019-06-07T04:10:02.803Z,10.65
2019-06-07T04:12:35.543Z,10.35
2019-06-07T04:15:08.158Z,10.05
2019-06-07T04:18:00.409Z,11.25
2019-06-07T04:20:14.139Z,12.75
2019-06-07T04:22:46.314Z,13.20
2019-06-07T04:25:17.933Z,14.70
2019-06-07T04:27:51.583Z,17.10
2019-06-07T04:30:39.531Z,16.55
2019-06-07T04:33:15.255Z,16.57
2019-06-07T04:35:46.506Z,17.02
2019-06-07T04:38:18.451Z,14.60
2019-06-07T04:40:51.704Z,15.13
2019-06-07T04:43:23.855Z,16.07
2019-06-07T04:45:56.884Z,17.02
2019-06-07T04:48:31.958Z,16.45
2019-06-07T04:51:04.815Z,17.55
2019-06-07T04:53:40.127Z,17.10
2019-06-07T04:56:09.336Z,23.15
2019-06-07T04:58:41.564Z,18.70
2019-06-07T05:01:26.752Z,17.52
2019-06-07T05:03:46.668Z,17.60
2019-06-07T05:06:19.170Z,17.17
2019-06-07T05:08:53.455Z,15.70
2019-06-07T05:11:27.474Z,15.50
2019-06-07T05:13:59.327Z,14.70
2019-06-07T05:16:34.737Z,13.60
2019-06-07T05:19:04.198Z,12.47
2019-06-07T05:21:58.693Z,11.95
2019-06-07T05:24:11.072Z,12.95
2019-06-07T05:26:43.018Z,12.78
2019-06-07T05:29:15.420Z,11.33
2019-06-07T05:31:47.866Z,13.13
2019-06-07T05:34:19.520Z,13.72
2019-06-07T05:37:10.411Z,8.95
2019-06-07T05:39:26.418Z,7.40
2019-06-07T05:41:58.564Z,8.00
2019-06-07T05:44:31.594Z,5.17
2019-06-07T05:47:03.013Z,6.33
2019-06-07T05:49:38.008Z,5.80
2019-06-07T05:54:40.451Z,5.85
2019-06-07T05:57:12.083Z,6.75
2019-06-07T05:59:47.210Z,5.08
2019-06-07T06:04:50.836Z,7.42
2019-06-07T06:07:22.731Z,6.53
2019-06-07T06:09:54.353Z,5.60
2019-06-07T06:12:35.289Z,5.30
2019-06-07T06:14:59.714Z,5.58
2019-06-07T06:17:31.741Z,5.80
2019-06-07T06:20:04.863Z,6.33
2019-06-07T06:22:41.286Z,5.85
2019-06-07T06:25:31.688Z,4.45
2019-06-07T06:32:57.092Z,5.20
2019-06-07T06:35:24.312Z,4.65
2019-06-07T06:37:56.198Z,4.15
2019-06-07T06:40:27.728Z,4.22
2019-06-07T06:43:01.732Z,3.52
2019-06-07T06:45:33.490Z,3.65
2019-06-07T06:48:06.103Z,3.80
2019-06-07T06:50:38.708Z,3.58
2019-06-07T06:53:10.598Z,3.60
2019-06-07T06:55:43.963Z,3.00
2019-06-07T06:58:15.657Z,3.92
2019-06-07T07:01:04.260Z,4.00
2019-06-07T07:06:23.869Z,3.70
2019-06-07T07:08:30.761Z,4.30
2019-06-07T07:11:02.315Z,4.40
2019-06-07T07:13:34.028Z,4.08
2019-06-07T07:16:05.811Z,7.75
2019-06-07T07:18:39.703Z,4.62
2019-06-07T07:21:13.024Z,4.03
2019-06-07T07:24:05.470Z,5.30
2019-06-07T07:26:18.400Z,7.83
2019-06-07T07:28:53.965Z,9.98
2019-06-07T07:34:30.930Z,9.08
2019-06-07T07:36:39.440Z,8.25
2019-06-07T07:39:09.294Z,2.80
2019-06-07T07:42:04.804Z,4.20
2019-06-07T07:44:16.612Z,8.13
2019-06-07T07:46:52.765Z,5.65
2019-06-07T07:49:24.715Z,4.00
2019-06-07T07:54:33.680Z,2.87
2019-06-07T07:57:07.509Z,2.67
2019-06-07T07:59:44.182Z,2.70
2019-06-07T08:02:14.173Z,3.55
2019-06-07T08:05:20.210Z,3.40
2019-06-07T08:07:21.171Z,4.83
2019-06-07T08:09:57.741Z,3.67
2019-06-07T08:12:54.652Z,3.35
2019-06-07T08:15:07.860Z,6.08
2019-06-07T08:17:42.475Z,3.20
2019-06-07T08:20:16.317Z,2.83
2019-06-07T08:22:52.412Z,9.60
2019-06-07T08:25:25.200Z,3.25
2019-06-07T08:27:59.120Z,5.95
2019-06-07T08:30:56.845Z,4.50
2019-06-07T08:33:25.416Z,3.30
2019-06-07T08:36:06.236Z,2.30
2019-06-07T08:38:33.803Z,3.60
2019-06-07T08:40:56.721Z,4.35
2019-06-07T08:43:23.898Z,5.37
2019-06-07T08:46:01.557Z,3.30
2019-06-07T08:51:08.294Z,3.00
2019-06-07T08:53:34.299Z,3.50
2019-06-07T08:56:11.041Z,3.90
2019-06-07T08:58:40.467Z,2.42
2019-06-07T09:01:12.030Z,5.30
2019-06-07T09:03:45.831Z,3.40
2019-06-07T09:07:01.208Z,2.50
2019-06-07T09:11:23.458Z,3.30
2019-06-07T09:13:57.214Z,3.40
2019-06-07T09:16:28.231Z,4.10
2019-06-07T09:19:03.845Z,6.30
2019-06-07T09:21:33.218Z,2.62
2019-06-07T09:24:11.319Z,3.90
2019-06-07T09:29:11.807Z,3.65
2019-06-07T09:31:52.422Z,2.80
2019-06-07T09:34:15.827Z,3.75
2019-06-07T09:36:47.985Z,4.05
2019-06-07T09:39:22.506Z,5.03
2019-06-07T09:41:54.369Z,7.17
2019-06-07T09:44:27.192Z,3.87
2019-06-07T09:47:19.971Z,4.03
2019-06-07T09:49:33.601Z,4.37
2019-06-07T09:52:09.106Z,5.00
2019-06-07T09:55:05.809Z,3.92
2019-06-07T09:57:17.361Z,3.72
2019-06-07T09:59:48.848Z,4.65
2019-06-07T10:02:20.719Z,6.42
2019-06-07T10:04:53.390Z,6.50
2019-06-07T10:07:32.060Z,7.67
2019-06-07T10:12:38.186Z,4.45
2019-06-07T10:15:10.562Z,7.58
2019-06-07T10:17:44.707Z,3.85
2019-06-07T10:20:19.801Z,6.75
2019-06-07T10:22:51.982Z,5.53
2019-06-07T10:25:27.386Z,3.83
2019-06-07T10:28:00.039Z,4.75
2019-06-07T10:30:33.082Z,5.45
2019-06-07T10:33:04.967Z,7.17
2019-06-07T10:35:39.658Z,4.67
2019-06-07T10:38:11.420Z,6.75
2019-06-07T10:40:42.880Z,5.47
2019-06-07T10:43:14.752Z,6.50
2019-06-07T10:45:48.015Z,5.92
2019-06-07T10:48:19.673Z,7.10
2019-06-07T10:50:51.632Z,6.65
2019-06-07T10:53:23.872Z,6.15
2019-06-07T10:55:55.457Z,7.42
2019-06-07T10:58:28.030Z,5.25
2019-06-07T11:00:59.882Z,6.30
2019-06-07T11:03:31.497Z,8.13
2019-06-07T11:06:05.726Z,6.55
2019-06-07T11:08:38.189Z,4.47
2019-06-07T11:11:10.058Z,4.97
2019-06-07T11:13:42.767Z,4.08
2019-06-07T11:16:15.708Z,4.47
2019-06-07T11:18:48.413Z,5.87
2019-06-07T11:21:19.669Z,3.90
2019-06-07T11:23:51.330Z,5.58
2019-06-07T11:26:22.976Z,5.53
2019-06-07T11:28:54.688Z,4.00
2019-06-07T11:31:26.621Z,4.00
2019-06-07T11:34:00.925Z,4.05
2019-06-07T11:36:32.669Z,10.58
2019-06-07T11:39:08.508Z,3.92
2019-06-07T11:41:40.154Z,3.83
2019-06-07T11:44:12.996Z,4.45
2019-06-07T11:46:44.718Z,3.30
2019-06-07T11:49:20.468Z,4.17
2019-06-07T11:54:21.314Z,3.33
2019-06-07T11:56:53.584Z,5.20
2019-06-07T11:59:26.467Z,4.40
2019-06-07T12:01:58.975Z,3.27
2019-06-07T12:04:34.972Z,4.55
2019-06-07T12:07:10.870Z,2.70
2019-06-07T12:09:55.825Z,3.30
2019-06-07T12:12:20.224Z,3.62
2019-06-07T12:14:51.877Z,3.75
2019-06-07T12:17:26.374Z,4.65
2019-06-07T12:19:59.427Z,4.08
2019-06-07T12:22:32.354Z,4.28
2019-06-07T12:25:06.402Z,3.92
2019-06-07T12:27:39.298Z,3.47
2019-06-07T12:30:20.735Z,4.50
2019-06-07T12:32:49.878Z,6.50
2019-06-07T12:35:22.690Z,3.40
2019-06-07T12:37:57.776Z,4.05
2019-06-07T12:42:00.028Z,3.90
2019-06-07T12:44:33.460Z,2.98
2019-06-07T12:47:06.465Z,4.10
2019-06-07T12:49:39.448Z,4.47
2019-06-07T12:52:17.829Z,4.45
2019-06-07T12:54:52.270Z,4.28
2019-06-07T12:57:26.701Z,4.78
2019-06-07T13:02:42.445Z,3.10
2019-06-07T13:05:19.938Z,5.25
2019-06-07T13:07:54.369Z,2.90
2019-06-07T13:10:26.001Z,3.60
2019-06-07T13:13:00.725Z,8.05
2019-06-07T13:18:06.860Z,5.08
2019-06-07T13:20:42.675Z,4.40
2019-06-07T13:23:14.406Z,4.75
2019-06-07T13:25:46.848Z,3.12
2019-06-07T13:28:20.806Z,5.62
2019-06-07T13:31:02.137Z,3.85
2019-06-07T13:33:42.418Z,3.25
2019-06-07T13:36:20.145Z,3.77
2019-06-07T13:38:53.307Z,6.03
2019-06-07T13:41:36.269Z,4.65
2019-06-07T13:44:00.974Z,4.05
2019-06-07T13:46:33.025Z,4.45
2019-06-07T13:49:04.694Z,4.25
2019-06-07T13:51:36.327Z,7.75
2019-06-07T13:54:07.890Z,5.55
2019-06-07T13:57:00.859Z,4.35
2019-06-07T13:59:14.461Z,4.22
2019-06-07T14:01:48.225Z,5.12
2019-06-07T14:04:20.892Z,5.17
2019-06-07T14:06:53.041Z,7.72
2019-06-07T14:09:25.237Z,6.30
2019-06-07T14:11:57.134Z,5.45
2019-06-07T14:14:29.508Z,8.60
2019-06-07T14:17:02.156Z,4.65
2019-06-07T14:19:33.943Z,5.05
2019-06-07T14:22:05.604Z,5.92
2019-06-07T14:24:36.943Z,4.87
2019-06-07T14:27:09.010Z,5.03
2019-06-07T14:29:40.865Z,7.58
2019-06-07T14:32:12.727Z,6.95
2019-06-07T14:34:44.276Z,5.92
2019-06-07T14:37:15.859Z,6.25
2019-06-07T14:39:47.820Z,6.45
2019-06-07T14:42:20.736Z,15.13
2019-06-07T14:44:54.501Z,4.28
2019-06-07T14:47:26.111Z,3.80
2019-06-07T14:49:57.665Z,3.30
2019-06-07T14:52:30.854Z,3.10
2019-06-07T14:55:02.661Z,3.20
2019-06-07T14:57:35.495Z,8.25
2019-06-07T15:00:11.515Z,6.47
2019-06-07T15:02:41.292Z,4.50
2019-06-07T15:05:14.271Z,5.45
2019-06-07T15:07:47.970Z,5.50
2019-06-07T15:10:19.549Z,5.92
2019-06-07T15:12:51.180Z,4.95
2019-06-07T15:15:24.060Z,9.90
2019-06-07T15:17:55.609Z,5.50
2019-06-07T15:20:30.437Z,9.55
2019-06-07T15:23:02.296Z,5.58
2019-06-07T15:25:35.465Z,7.15
2019-06-07T15:28:09.715Z,9.53
2019-06-07T15:30:41.269Z,7.72
2019-06-07T15:33:13.128Z,7.83
2019-06-07T15:35:45.067Z,5.53
2019-06-07T15:38:17.339Z,5.33
2019-06-07T15:40:49.072Z,5.20
2019-06-07T15:43:21.055Z,7.55
2019-06-07T15:45:54.295Z,5.33
2019-06-07T15:48:26.820Z,7.80
2019-06-07T15:50:58.378Z,15.35
2019-06-07T15:53:36.320Z,36.10
2019-06-07T15:56:04.040Z,23.55
2019-06-07T15:58:37.281Z,9.03
2019-06-07T16:01:08.803Z,6.97
2019-06-07T16:03:41.955Z,6.80
2019-06-07T16:06:13.932Z,6.90
2019-06-07T16:08:45.686Z,7.87
2019-06-07T16:11:17.341Z,7.25
2019-06-07T16:13:49.405Z,8.48
2019-06-07T16:16:21.070Z,9.70
2019-06-07T16:18:52.924Z,8.35
2019-06-07T16:21:24.371Z,7.50
2019-06-07T16:23:55.717Z,7.70
2019-06-07T16:26:28.194Z,8.10
2019-06-07T16:29:00.257Z,9.10
2019-06-07T16:31:32.668Z,8.55
2019-06-07T16:34:05.559Z,13.30
2019-06-07T16:36:38.384Z,16.00
2019-06-07T16:39:10.188Z,10.40
2019-06-07T16:41:42.869Z,14.60
2019-06-07T16:44:15.094Z,11.18
2019-06-07T16:46:46.768Z,10.38
2019-06-07T16:49:18.606Z,9.80
2019-06-07T16:51:50.258Z,10.63
2019-06-07T16:54:22.115Z,8.80
2019-06-07T16:56:54.402Z,14.25
2019-06-07T16:59:26.351Z,15.43
2019-06-07T17:01:58.618Z,13.98
2019-06-07T17:04:31.296Z,9.63
2019-06-07T17:07:03.041Z,13.10
2019-06-07T17:09:34.505Z,10.30
2019-06-07T17:12:06.157Z,12.00
2019-06-07T17:14:38.362Z,10.98
2019-06-07T17:17:10.078Z,10.50
2019-06-07T17:19:42.850Z,11.93
2019-06-07T17:22:14.416Z,11.73
2019-06-07T17:24:47.634Z,16.02
2019-06-07T17:27:19.161Z,14.15
2019-06-07T17:29:50.760Z,11.78
2019-06-07T17:32:22.580Z,12.43
2019-06-07T17:34:54.167Z,14.50
2019-06-07T17:37:25.943Z,14.78
2019-06-07T17:39:57.629Z,12.28
2019-06-07T17:42:29.486Z,12.53
2019-06-07T17:45:01.142Z,14.13
2019-06-07T17:47:32.603Z,14.53
2019-06-07T17:50:09.010Z,10.23
2019-06-07T17:52:41.745Z,13.55
2019-06-07T17:55:13.795Z,12.27
2019-06-07T17:57:46.422Z,11.85
2019-06-07T18:00:34.050Z,11.95
2019-06-07T18:02:53.034Z,11.90
2019-06-07T18:05:24.920Z,12.53
2019-06-07T18:07:57.933Z,12.60
2019-06-07T18:10:38.419Z,12.93
2019-06-07T18:13:11.266Z,13.95
2019-06-07T18:15:44.554Z,12.25
2019-06-07T18:18:16.298Z,13.18
2019-06-07T18:20:49.115Z,15.95
2019-06-07T18:23:20.620Z,11.22
2019-06-07T18:25:52.563Z,12.53
2019-06-07T18:28:25.013Z,12.00
2019-06-07T18:30:57.137Z,11.95
2019-06-07T18:33:30.118Z,9.83
2019-06-07T18:36:01.778Z,12.35
2019-06-07T18:38:33.290Z,10.30
2019-06-07T18:41:06.718Z,14.78
2019-06-07T18:43:38.327Z,18.73
2019-06-07T18:46:10.740Z,28.07
2019-06-07T18:48:42.392Z,11.25
2019-06-07T18:51:14.212Z,11.15
2019-06-07T18:53:45.587Z,11.97
2019-06-07T18:56:17.354Z,13.00
2019-06-07T18:58:49.190Z,12.60
2019-06-07T19:01:20.975Z,12.65
2019-06-07T19:03:53.990Z,14.03
2019-06-07T19:06:25.593Z,12.13
2019-06-07T19:08:59.314Z,13.53
2019-06-07T19:11:30.874Z,13.15
2019-06-07T19:14:02.930Z,12.63
2019-06-07T19:16:34.278Z,14.87
2019-06-07T19:19:05.908Z,13.32
2019-06-07T19:21:38.405Z,13.43
2019-06-07T19:24:09.583Z,13.83
2019-06-07T19:26:41.300Z,13.50
2019-06-07T19:29:14.903Z,12.43
2019-06-07T19:31:46.356Z,14.60
2019-06-07T19:34:18.011Z,13.03
2019-06-07T19:36:51.402Z,12.55
2019-06-07T19:39:24.374Z,12.23
2019-06-07T19:41:55.963Z,14.23
2019-06-07T19:44:27.651Z,12.80
2019-06-07T19:47:00.596Z,11.50
2019-06-07T19:49:31.822Z,11.38
2019-06-07T19:52:03.579Z,10.98
2019-06-07T19:54:36.358Z,10.30
2019-06-07T19:57:08.117Z,13.22
2019-06-07T19:59:39.728Z,10.78
2019-06-07T20:02:12.971Z,12.10
2019-06-07T20:04:45.375Z,9.95
2019-06-07T20:07:16.778Z,10.13
2019-06-07T20:09:48.750Z,10.23
2019-06-07T20:12:20.405Z,11.90
2019-06-07T20:14:55.265Z,10.72
2019-06-07T20:17:25.240Z,11.95
2019-06-07T20:19:58.199Z,10.95
2019-06-07T20:22:29.566Z,11.00
2019-06-07T20:25:03.199Z,10.03
2019-06-07T20:30:09.347Z,9.00
2019-06-07T20:32:43.978Z,10.20
2019-06-07T20:37:46.870Z,10.65
2019-06-07T20:40:24.176Z,9.68
2019-06-07T20:42:51.304Z,9.80
2019-06-07T20:45:33.038Z,10.50
2019-06-07T20:47:57.980Z,8.80
2019-06-07T20:50:29.744Z,9.58
2019-06-07T20:53:03.043Z,10.85
2019-06-07T20:55:34.488Z,8.60
2019-06-07T20:58:07.304Z,9.23
2019-06-07T21:00:39.126Z,9.03
2019-06-07T21:03:11.912Z,7.55
2019-06-07T21:05:43.154Z,6.87
2019-06-07T21:08:14.912Z,7.72
2019-06-07T21:10:46.085Z,8.65
2019-06-07T21:13:17.769Z,7.58
2019-06-07T21:15:49.563Z,7.10
2019-06-07T21:18:22.059Z,6.10
2019-06-07T21:20:53.997Z,6.50
2019-06-07T21:23:26.061Z,6.65
2019-06-07T21:25:57.871Z,6.45
2019-06-07T21:28:29.584Z,6.97
2019-06-07T21:31:03.412Z,5.70
2019-06-07T21:33:35.033Z,5.58
2019-06-07T21:36:10.168Z,6.78
2019-06-07T21:38:41.460Z,6.35
2019-06-07T21:41:13.480Z,5.92
2019-06-07T21:43:47.082Z,5.90
2019-06-07T21:46:20.631Z,5.60
2019-06-07T21:48:53.359Z,6.05
2019-06-07T21:51:25.011Z,5.35
2019-06-07T21:53:56.702Z,5.10
2019-06-07T21:56:28.430Z,5.28
2019-06-07T21:59:00.079Z,5.30
2019-06-07T22:01:31.839Z,4.33
2019-06-07T22:04:05.272Z,5.03
2019-06-07T22:06:36.858Z,4.35
2019-06-07T22:09:09.960Z,4.35
2019-06-07T22:11:41.935Z,4.05
2019-06-07T22:14:14.520Z,3.85
2019-06-07T22:16:48.232Z,4.30
2019-06-07T22:19:19.879Z,4.20
2019-06-07T22:22:02.102Z,4.12
2019-06-07T22:24:24.527Z,3.47
2019-06-07T22:26:56.009Z,3.65
2019-06-07T22:29:27.389Z,3.67
2019-06-07T22:31:58.901Z,3.33
2019-06-07T22:34:30.615Z,3.20
2019-06-07T22:37:03.603Z,3.85
2019-06-07T22:39:36.165Z,3.50
2019-06-07T22:42:08.723Z,3.58
2019-06-07T22:44:40.307Z,3.22
2019-06-07T22:47:12.108Z,3.98
2019-06-07T22:49:43.603Z,3.50
2019-06-07T22:52:16.744Z,3.95
2019-06-07T22:54:48.020Z,3.83
2019-06-07T22:57:21.437Z,4.03
2019-06-07T22:59:55.234Z,3.90
2019-06-07T23:02:26.991Z,3.92
2019-06-07T23:04:58.641Z,3.70
2019-06-07T23:07:31.734Z,3.60
2019-06-07T23:10:06.973Z,3.50
2019-06-07T23:12:39.382Z,3.95
2019-06-07T23:15:13.354Z,3.53
2019-06-07T23:17:44.702Z,3.13
2019-06-07T23:20:18.135Z,4.25
2019-06-07T23:22:51.387Z,4.20
2019-06-07T23:25:24.607Z,4.10
2019-06-07T23:27:56.035Z,5.20
2019-06-07T23:30:29.009Z,3.42
2019-06-07T23:33:01.591Z,3.50
2019-06-07T23:35:33.044Z,4.12
2019-06-07T23:38:05.562Z,7.58
2019-06-07T23:40:38.550Z,3.98
2019-06-07T23:43:11.643Z,3.73
2019-06-07T23:45:43.339Z,4.65
2019-06-07T23:48:15.814Z,4.58
2019-06-07T23:50:48.087Z,4.90
2019-06-07T23:53:19.970Z,5.90
2019-06-07T23:55:51.803Z,4.62
2019-06-07T23:58:23.465Z,3.92
